Time;durP1;ratioP1;P1;durP2;ratioP2;P2;SDS_P1;SDS_P2;PMS_P1;PMS_P2;Temp;Humidity;BMP_temperature;BMP_pressure;BME280_temperature;BME280_humidity;BME280_pressure;Samples;Min_cycle;Max_cycle;Signal;HPM_P1;HPM_P2
2023/06/16 00:01:57;;;;;;;8.57;3.88;;;16.30;99.90;;;;;;7382330;19;20384;-89
2023/06/16 00:04:25;;;;;;;9.07;4.10;;;16.30;99.90;;;;;;7375457;19;20026;-90
2023/06/16 00:06:53;;;;;;;6.78;4.15;;;16.10;99.90;;;;;;7376613;19;20029;-89
2023/06/16 00:09:25;;;;;;;8.05;5.03;;;16.10;99.90;;;;;;7378697;19;20391;-90
2023/06/16 00:11:55;;;;;;;9.05;4.35;;;16.10;99.90;;;;;;7376640;19;20109;-90
2023/06/16 00:14:21;;;;;;;9.43;4.25;;;16.00;99.90;;;;;;7377225;19;20109;-89
2023/06/16 00:16:49;;;;;;;8.43;4.18;;;16.00;99.90;;;;;;7378819;19;20010;-89
2023/06/16 00:19:17;;;;;;;8.88;3.70;;;16.00;99.90;;;;;;7377293;19;20498;-89
2023/06/16 00:21:45;;;;;;;6.25;3.95;;;15.90;99.90;;;;;;7380526;19;20519;-90
2023/06/16 00:24:12;;;;;;;6.57;4.20;;;15.90;99.90;;;;;;7378774;19;20021;-90
2023/06/16 00:26:38;;;;;;;5.55;3.88;;;15.80;99.90;;;;;;7379000;19;20011;-91
2023/06/16 00:29:05;;;;;;;8.23;4.60;;;15.80;99.90;;;;;;7377853;19;20047;-90
2023/06/16 00:31:32;;;;;;;7.32;4.43;;;15.70;99.90;;;;;;7378628;19;20029;-90
2023/06/16 00:34:03;;;;;;;8.35;5.03;;;15.70;99.90;;;;;;7379666;19;20017;-90
2023/06/16 00:36:29;;;;;;;11.30;5.10;;;15.70;99.90;;;;;;7379896;19;20025;-90
2023/06/16 00:38:58;;;;;;;8.95;4.60;;;15.70;99.90;;;;;;7374070;19;20339;-88
2023/06/16 00:41:24;;;;;;;9.63;5.45;;;15.70;99.90;;;;;;7372888;19;20015;-89
2023/06/16 00:43:53;;;;;;;7.80;5.15;;;15.60;99.90;;;;;;7378906;19;20036;-88
2023/06/16 00:46:28;;;;;;;7.78;4.88;;;15.60;99.90;;;;;;7381578;19;20010;-90
2023/06/16 00:48:56;;;;;;;8.32;5.25;;;15.50;99.90;;;;;;7379489;19;20276;-89
2023/06/16 00:51:25;;;;;;;6.93;4.90;;;15.50;99.90;;;;;;7379027;19;20360;-91
2023/06/16 00:53:53;;;;;;;9.52;5.10;;;15.50;99.90;;;;;;7372119;19;20030;-89
2023/06/16 00:56:21;;;;;;;10.13;6.00;;;15.50;99.90;;;;;;7379190;19;20017;-88
2023/06/16 00:58:51;;;;;;;8.45;5.22;;;15.50;99.90;;;;;;7380026;19;20014;-91
2023/06/16 01:01:18;;;;;;;7.03;4.53;;;15.50;99.90;;;;;;7380503;19;20019;-88
2023/06/16 01:03:45;;;;;;;6.13;4.28;;;15.30;99.90;;;;;;7378004;19;20036;-89
2023/06/16 01:06:41;;;;;;;7.15;4.57;;;15.20;99.90;;;;;;7374172;19;20410;-90
2023/06/16 01:09:47;;;;;;;7.43;4.32;;;15.20;99.90;;;;;;7359933;19;20025;-90
2023/06/16 01:12:32;;;;;;;8.35;4.32;;;15.10;99.90;;;;;;7372972;19;20022;-90
2023/06/16 01:15:06;;;;;;;5.32;4.07;;;15.00;99.90;;;;;;7379131;19;20026;-89
2023/06/16 01:17:43;;;;;;;6.72;4.38;;;14.90;99.90;;;;;;7374075;19;20014;-91
2023/06/16 01:20:39;;;;;;;6.47;4.75;;;14.80;99.90;;;;;;7376231;19;20101;-88
2023/06/16 01:23:20;;;;;;;8.63;5.30;;;14.70;99.90;;;;;;7375858;19;20029;-89
2023/06/16 01:25:48;;;;;;;8.60;4.72;;;14.60;99.90;;;;;;7377907;19;20070;-90
2023/06/16 01:28:19;;;;;;;6.60;4.15;;;14.40;99.90;;;;;;7375936;19;20018;-89
2023/06/16 01:30:50;;;;;;;7.18;4.72;;;14.30;99.90;;;;;;7376552;19;20026;-90
2023/06/16 01:33:23;;;;;;;7.50;5.07;;;14.20;99.90;;;;;;7376200;19;20022;-89
2023/06/16 01:35:52;;;;;;;8.80;5.40;;;14.10;99.90;;;;;;7374356;19;20017;-89
2023/06/16 01:38:20;;;;;;;9.95;5.30;;;14.10;99.90;;;;;;7375297;19;20338;-89
2023/06/16 01:40:51;;;;;;;10.38;4.95;;;14.00;99.90;;;;;;7382535;19;20014;-86
2023/06/16 01:43:20;;;;;;;7.07;5.40;;;14.00;99.90;;;;;;7385467;19;20018;-90
2023/06/16 01:45:49;;;;;;;7.40;5.45;;;14.00;99.90;;;;;;7378890;19;20294;-89
2023/06/16 01:48:17;;;;;;;6.72;5.07;;;14.00;99.90;;;;;;7383270;19;20028;-89
2023/06/16 01:50:43;;;;;;;10.02;5.80;;;14.00;99.90;;;;;;7381683;19;20114;-89
2023/06/16 01:53:10;;;;;;;7.75;5.72;;;14.10;99.90;;;;;;7378228;19;20022;-89
2023/06/16 01:55:36;;;;;;;9.15;5.95;;;14.10;99.90;;;;;;7364117;19;20019;-89
2023/06/16 01:58:06;;;;;;;9.30;5.65;;;14.10;99.90;;;;;;7368201;19;20022;-89
2023/06/16 02:00:42;;;;;;;8.60;5.80;;;14.10;99.90;;;;;;7376684;19;20025;-90
2023/06/16 02:03:16;;;;;;;7.82;5.70;;;14.00;99.90;;;;;;7379358;19;20023;-89
2023/06/16 02:05:47;;;;;;;8.48;5.32;;;14.10;99.90;;;;;;7383989;19;20487;-89
2023/06/16 02:08:16;;;;;;;7.80;5.68;;;14.10;99.90;;;;;;7386845;19;20014;-90
2023/06/16 02:10:43;;;;;;;8.45;6.07;;;14.00;99.90;;;;;;7381542;19;20030;-91
2023/06/16 02:13:10;;;;;;;8.90;5.93;;;14.00;99.90;;;;;;7382476;19;20565;-91
2023/06/16 02:15:38;;;;;;;8.85;6.40;;;14.00;99.90;;;;;;7378173;19;20528;-91
2023/06/16 02:18:04;;;;;;;7.65;5.68;;;14.10;99.90;;;;;;7384263;19;20055;-89
2023/06/16 02:20:30;;;;;;;7.80;5.70;;;14.10;99.90;;;;;;7379174;19;20022;-90
2023/06/16 02:22:57;;;;;;;7.68;5.68;;;14.10;99.90;;;;;;7381429;19;20413;-90
2023/06/16 02:25:23;;;;;;;9.13;5.45;;;14.10;99.90;;;;;;7381954;19;20018;-90
2023/06/16 02:27:50;;;;;;;8.57;5.95;;;14.00;99.90;;;;;;7382057;19;20018;-90
2023/06/16 02:30:16;;;;;;;6.80;5.85;;;14.00;99.90;;;;;;7385399;19;20015;-90
2023/06/16 02:32:43;;;;;;;9.20;6.13;;;14.00;99.90;;;;;;7380876;19;20022;-89
2023/06/16 02:35:10;;;;;;;8.18;6.35;;;13.90;99.90;;;;;;7381539;19;20018;-90
2023/06/16 02:37:36;;;;;;;11.57;6.18;;;13.80;99.90;;;;;;7383567;19;20074;-89
2023/06/16 02:40:06;;;;;;;9.05;7.15;;;13.80;99.90;;;;;;7384727;19;20509;-89
2023/06/16 02:42:33;;;;;;;8.10;6.63;;;13.80;99.90;;;;;;7380366;19;20570;-91
2023/06/16 02:45:00;;;;;;;8.02;6.88;;;13.70;99.90;;;;;;7385556;19;20018;-90
2023/06/16 02:47:26;;;;;;;8.73;6.40;;;13.70;99.90;;;;;;7378376;19;20022;-89
2023/06/16 02:49:55;;;;;;;10.20;6.70;;;13.70;99.90;;;;;;7382179;19;20041;-89
2023/06/16 02:52:21;;;;;;;9.68;7.22;;;13.70;99.90;;;;;;7379342;19;20018;-89
2023/06/16 02:54:47;;;;;;;9.73;7.18;;;13.60;99.90;;;;;;7381355;19;20022;-89
2023/06/16 02:57:21;;;;;;;8.95;7.68;;;13.50;99.90;;;;;;7379929;19;20838;-88
2023/06/16 02:59:47;;;;;;;9.10;6.82;;;13.50;99.90;;;;;;7377612;19;20061;-89
2023/06/16 03:02:19;;;;;;;10.55;7.05;;;13.60;99.90;;;;;;7380925;19;20031;-91
2023/06/16 03:04:51;;;;;;;9.02;7.60;;;13.50;99.90;;;;;;7382892;19;20029;-89
2023/06/16 03:07:22;;;;;;;11.50;7.70;;;13.50;99.90;;;;;;7383898;19;20022;-88
2023/06/16 03:09:48;;;;;;;10.60;7.63;;;13.60;99.90;;;;;;7382919;19;20015;-88
2023/06/16 03:12:16;;;;;;;8.85;7.70;;;13.70;99.90;;;;;;7381839;19;20490;-88
2023/06/16 03:14:59;;;;;;;8.18;6.63;;;13.70;99.90;;;;;;7383041;19;21516;-90
2023/06/16 03:17:26;;;;;;;8.70;7.03;;;13.70;99.90;;;;;;7382102;19;20019;-89
2023/06/16 03:19:52;;;;;;;11.38;7.43;;;13.80;99.90;;;;;;7382208;19;20023;-89
2023/06/16 03:22:27;;;;;;;11.68;7.65;;;13.70;99.90;;;;;;7381534;19;20050;-90
2023/06/16 03:24:54;;;;;;;8.50;7.43;;;13.80;99.90;;;;;;7384173;19;20018;-91
2023/06/16 03:27:20;;;;;;;11.18;8.52;;;13.70;99.90;;;;;;7384727;19;20491;-90
2023/06/16 03:29:55;;;;;;;10.93;8.88;;;13.80;99.90;;;;;;7385418;19;20115;-90
2023/06/16 03:32:22;;;;;;;11.10;10.00;;;13.80;99.90;;;;;;7381805;19;20011;-90
2023/06/16 03:34:48;;;;;;;10.35;9.25;;;13.80;99.90;;;;;;7382183;19;20018;-90
2023/06/16 03:37:16;;;;;;;13.25;9.85;;;13.80;99.90;;;;;;7389879;19;20026;-90
2023/06/16 03:39:44;;;;;;;9.85;8.48;;;13.80;99.90;;;;;;7401828;19;20030;-88
2023/06/16 03:42:11;;;;;;;10.60;9.32;;;13.80;99.90;;;;;;7393410;19;20041;-91
2023/06/16 03:44:38;;;;;;;13.85;9.75;;;13.70;99.90;;;;;;7388746;19;20083;-90
2023/06/16 03:47:05;;;;;;;12.60;10.20;;;13.70;99.90;;;;;;7387138;19;20031;-90
2023/06/16 03:49:32;;;;;;;11.90;10.00;;;13.70;99.90;;;;;;7383816;19;20090;-89
2023/06/16 03:51:59;;;;;;;13.65;10.48;;;13.70;99.90;;;;;;7384559;19;20022;-90
2023/06/16 03:54:27;;;;;;;12.80;10.63;;;13.70;99.90;;;;;;7381804;19;20493;-89
2023/06/16 03:56:53;;;;;;;14.73;10.23;;;13.70;99.90;;;;;;7380816;19;20014;-89
2023/06/16 03:59:22;;;;;;;11.75;10.32;;;13.80;99.90;;;;;;7384730;19;20065;-90
2023/06/16 04:01:50;;;;;;;12.52;10.32;;;13.80;99.90;;;;;;7379889;19;20274;-89
2023/06/16 04:04:17;;;;;;;13.35;10.55;;;13.90;99.90;;;;;;7382478;19;20534;-89
2023/06/16 04:06:43;;;;;;;11.02;9.93;;;13.80;99.90;;;;;;7378587;19;20018;-89
2023/06/16 04:09:11;;;;;;;12.35;10.25;;;13.80;99.90;;;;;;7381542;19;20014;-90
2023/06/16 04:11:40;;;;;;;19.15;11.80;;;13.80;99.90;;;;;;7382173;19;20019;-90
2023/06/16 04:14:09;;;;;;;14.75;11.65;;;13.90;99.90;;;;;;7382567;19;20021;-90
2023/06/16 04:16:37;;;;;;;12.32;10.93;;;13.90;99.90;;;;;;7382666;19;20511;-91
2023/06/16 04:19:06;;;;;;;15.05;11.10;;;14.00;99.90;;;;;;7382364;19;20049;-90
2023/06/16 04:21:34;;;;;;;12.50;11.18;;;13.90;99.90;;;;;;7380276;19;20014;-91
2023/06/16 04:24:02;;;;;;;13.65;10.65;;;14.00;99.90;;;;;;7379163;19;20429;-88
2023/06/16 04:26:29;;;;;;;12.02;10.60;;;14.10;99.90;;;;;;7377424;19;20014;-90
2023/06/16 04:29:03;;;;;;;12.48;11.15;;;14.20;99.90;;;;;;7380185;19;20082;-90
2023/06/16 04:31:33;;;;;;;14.18;12.05;;;14.30;99.90;;;;;;7381587;19;20045;-90
2023/06/16 04:34:03;;;;;;;14.82;12.60;;;14.40;99.90;;;;;;7381003;19;20487;-89
2023/06/16 04:36:30;;;;;;;14.20;12.80;;;14.60;99.90;;;;;;7382150;19;20022;-91
2023/06/16 04:38:59;;;;;;;15.73;12.68;;;14.70;99.90;;;;;;7380984;19;20022;-90
2023/06/16 04:41:26;;;;;;;15.63;13.10;;;14.80;99.90;;;;;;7382646;19;20015;-91
2023/06/16 04:43:55;;;;;;;14.25;12.93;;;14.90;99.90;;;;;;7380381;19;20381;-90
2023/06/16 04:46:22;;;;;;;14.75;13.27;;;15.00;99.90;;;;;;7377842;19;20037;-89
2023/06/16 04:48:49;;;;;;;14.65;13.15;;;15.10;99.90;;;;;;7380592;19;20011;-91
2023/06/16 04:51:15;;;;;;;16.33;13.73;;;15.20;99.90;;;;;;7379759;19;20018;-91
2023/06/16 04:53:43;;;;;;;14.98;13.20;;;15.30;99.90;;;;;;7380545;19;20018;-91
2023/06/16 04:56:12;;;;;;;15.10;13.77;;;15.50;99.90;;;;;;7381097;19;20628;-90
2023/06/16 04:58:39;;;;;;;16.23;14.63;;;15.50;99.90;;;;;;7378545;19;20015;-91
2023/06/16 05:01:09;;;;;;;15.20;13.65;;;15.70;99.90;;;;;;7375638;19;20525;-91
2023/06/16 05:03:36;;;;;;;15.95;14.27;;;15.80;99.90;;;;;;7381512;19;20023;-91
2023/06/16 05:06:02;;;;;;;16.08;14.38;;;15.80;99.90;;;;;;7379604;19;20019;-90
2023/06/16 05:08:29;;;;;;;16.05;14.35;;;16.00;99.90;;;;;;7381605;19;20069;-90
2023/06/16 05:10:56;;;;;;;16.55;14.85;;;16.20;99.90;;;;;;7377932;19;20562;-86
2023/06/16 05:13:22;;;;;;;15.25;13.73;;;16.60;99.90;;;;;;7373583;19;20026;-87
2023/06/16 05:15:48;;;;;;;15.38;13.77;;;17.00;99.90;;;;;;7374821;19;20039;-87
2023/06/16 05:18:15;;;;;;;15.65;14.02;;;17.20;99.90;;;;;;7371753;19;20482;-88
2023/06/16 05:20:42;;;;;;;16.08;14.20;;;17.50;99.90;;;;;;7374262;19;21399;-87
2023/06/16 05:23:08;;;;;;;14.30;12.90;;;17.70;99.90;;;;;;7372333;19;20015;-88
2023/06/16 05:25:35;;;;;;;15.60;13.50;;;17.90;99.90;;;;;;7372125;19;20716;-85
2023/06/16 05:28:05;;;;;;;15.95;14.07;;;18.00;99.90;;;;;;7370269;19;20618;-86
2023/06/16 05:30:32;;;;;;;15.13;13.63;;;18.40;99.90;;;;;;7361433;19;20078;-86
2023/06/16 05:32:58;;;;;;;15.98;14.07;;;18.60;99.90;;;;;;7366774;19;20611;-86
2023/06/16 05:35:26;;;;;;;15.95;14.18;;;18.60;99.90;;;;;;7368154;19;20883;-86
2023/06/16 05:37:53;;;;;;;15.10;13.55;;;18.90;99.90;;;;;;7373937;19;20585;-86
2023/06/16 05:40:19;;;;;;;15.60;13.30;;;18.90;99.90;;;;;;7377800;19;20711;-87
2023/06/16 05:42:49;;;;;;;16.05;14.48;;;19.00;99.90;;;;;;7374458;19;20105;-86
2023/06/16 05:45:15;;;;;;;15.82;14.07;;;19.20;99.90;;;;;;7377030;19;20089;-85
2023/06/16 05:47:41;;;;;;;14.90;13.40;;;19.30;99.90;;;;;;7376035;19;20097;-85
2023/06/16 05:50:10;;;;;;;211.38;189.88;;;19.50;99.90;;;;;;7381625;19;20715;-88
2023/06/16 05:52:40;;;;;;;16.20;14.60;;;19.50;99.90;;;;;;7375882;19;20022;-87
2023/06/16 05:55:10;;;;;;;18.55;16.63;;;19.60;99.90;;;;;;7379726;19;20515;-87
2023/06/16 05:57:43;;;;;;;15.85;14.35;;;19.80;99.90;;;;;;7377931;19;20025;-87
2023/06/16 06:00:11;;;;;;;15.73;13.93;;;19.80;99.90;;;;;;7375562;19;20032;-84
2023/06/16 06:02:41;;;;;;;16.63;14.90;;;20.10;99.90;;;;;;7371423;19;20057;-86
2023/06/16 06:05:18;;;;;;;14.77;13.35;;;19.90;99.90;;;;;;7376860;19;20632;-87
2023/06/16 06:07:45;;;;;;;15.35;13.77;;;20.00;99.90;;;;;;7380396;19;20037;-86
2023/06/16 06:10:13;;;;;;;14.90;13.43;;;20.10;99.90;;;;;;7380934;19;20018;-87
2023/06/16 06:12:42;;;;;;;18.10;13.90;;;20.20;99.90;;;;;;7376612;19;20026;-86
2023/06/16 06:15:10;;;;;;;15.10;13.60;;;20.30;99.90;;;;;;7378437;19;20018;-85
2023/06/16 06:17:36;;;;;;;14.90;12.88;;;20.40;99.90;;;;;;7376695;19;20022;-86
2023/06/16 06:20:10;;;;;;;14.20;12.57;;;20.60;99.90;;;;;;7374827;19;20534;-86
2023/06/16 06:22:38;;;;;;;14.52;12.60;;;20.90;99.90;;;;;;7375625;19;20029;-86
2023/06/16 06:25:06;;;;;;;13.73;12.32;;;21.00;99.90;;;;;;7379004;19;20023;-86
2023/06/16 06:27:33;;;;;;;13.07;11.15;;;21.40;99.90;;;;;;7377262;19;20030;-86
2023/06/16 06:30:00;;;;;;;13.63;12.38;;;21.70;99.90;;;;;;7383262;19;20578;-89
2023/06/16 06:32:26;;;;;;;14.57;13.07;;;21.90;99.90;;;;;;7374397;19;20015;-87
2023/06/16 06:34:54;;;;;;;13.35;11.90;;;22.10;99.90;;;;;;7376953;19;20535;-85
2023/06/16 06:37:26;;;;;;;16.17;14.50;;;22.20;99.90;;;;;;7374764;19;20069;-81
2023/06/16 06:39:53;;;;;;;23.00;20.67;;;22.40;99.90;;;;;;7376017;19;20561;-81
2023/06/16 06:42:20;;;;;;;14.05;12.55;;;22.60;99.90;;;;;;7374622;19;20018;-86
2023/06/16 06:44:51;;;;;;;15.15;13.82;;;22.60;99.90;;;;;;7373571;19;20521;-83
2023/06/16 06:47:21;;;;;;;30.75;27.70;;;22.60;99.90;;;;;;7379738;19;20018;-83
2023/06/16 06:49:50;;;;;;;12.35;11.20;;;22.60;99.90;;;;;;7375285;19;20053;-85
2023/06/16 06:52:16;;;;;;;15.60;14.20;;;22.50;99.90;;;;;;7375923;19;20018;-82
2023/06/16 06:54:44;;;;;;;13.00;11.65;;;22.70;99.90;;;;;;7374536;19;20018;-82
2023/06/16 06:57:12;;;;;;;15.50;13.85;;;22.70;99.90;;;;;;7378383;19;20031;-84
2023/06/16 06:59:40;;;;;;;12.90;11.80;;;22.90;99.90;;;;;;7378554;19;20014;-83
2023/06/16 07:02:08;;;;;;;13.88;12.52;;;23.10;99.90;;;;;;7375682;19;20019;-80
2023/06/16 07:04:37;;;;;;;14.88;13.35;;;23.10;99.90;;;;;;7375983;19;20018;-82
2023/06/16 07:07:05;;;;;;;17.15;15.38;;;23.10;99.90;;;;;;7375375;19;20022;-82
2023/06/16 07:09:31;;;;;;;10.18;9.15;;;23.20;99.90;;;;;;7375295;19;20026;-86
2023/06/16 07:11:58;;;;;;;28.60;15.38;;;23.30;99.90;;;;;;7376390;19;20232;-86
2023/06/16 07:14:26;;;;;;;27.60;21.13;;;23.60;99.90;;;;;;7376880;19;20137;-87
2023/06/16 07:16:57;;;;;;;86.20;15.40;;;23.70;99.90;;;;;;7379939;19;20014;-85
2023/06/16 07:19:26;;;;;;;12.95;9.20;;;24.00;99.90;;;;;;7374254;19;20110;-87
2023/06/16 07:22:00;;;;;;;36.60;15.30;;;24.30;99.90;;;;;;7377536;19;20014;-88
2023/06/16 07:24:32;;;;;;;12.50;10.57;;;24.30;99.90;;;;;;7372320;19;20102;-86
2023/06/16 07:27:01;;;;;;;14.48;9.30;;;24.10;99.90;;;;;;7370275;19;20029;-89
2023/06/16 07:29:29;;;;;;;10.48;8.88;;;23.80;99.80;;;;;;7378557;19;20594;-87
2023/06/16 07:31:56;;;;;;;10.50;9.00;;;23.80;99.90;;;;;;7379151;19;20010;-88
2023/06/16 07:34:22;;;;;;;11.68;9.18;;;23.60;99.80;;;;;;7381854;19;20032;-87
2023/06/16 07:36:49;;;;;;;11.50;9.65;;;23.80;99.90;;;;;;7373420;19;20026;-83
2023/06/16 07:39:21;;;;;;;9.50;8.50;;;24.20;99.90;;;;;;7372980;19;20355;-87
2023/06/16 07:41:49;;;;;;;8.73;7.82;;;24.50;99.90;;;;;;7377477;19;20472;-87
2023/06/16 07:44:16;;;;;;;8.57;7.35;;;24.80;98.90;;;;;;7374542;19;20015;-86
2023/06/16 07:46:45;;;;;;;10.68;8.27;;;24.80;98.70;;;;;;7376249;19;20010;-85
2023/06/16 07:49:13;;;;;;;8.32;7.53;;;24.80;97.90;;;;;;7375303;19;20801;-86
2023/06/16 07:51:42;;;;;;;79.53;17.08;;;25.10;96.70;;;;;;7374048;19;20371;-86
2023/06/16 07:54:09;;;;;;;138.88;23.60;;;24.90;95.70;;;;;;7374176;19;20049;-86
2023/06/16 07:56:36;;;;;;;8.00;6.55;;;24.90;95.60;;;;;;7377124;19;20026;-86
2023/06/16 07:59:02;;;;;;;7.05;6.35;;;25.10;94.20;;;;;;7365774;19;20014;-87
2023/06/16 08:01:29;;;;;;;8.68;5.53;;;25.20;94.10;;;;;;7364999;19;20098;-86
2023/06/16 08:03:56;;;;;;;7.38;5.95;;;25.30;94.10;;;;;;7372957;19;20026;-85
2023/06/16 08:06:22;;;;;;;9.57;7.30;;;25.10;93.20;;;;;;7372736;19;20019;-85
2023/06/16 08:08:49;;;;;;;6.57;5.93;;;25.10;93.40;;;;;;7372570;19;20024;-85
2023/06/16 08:11:15;;;;;;;7.57;6.10;;;25.40;93.00;;;;;;7373450;19;20022;-86
2023/06/16 08:13:42;;;;;;;10.43;7.38;;;25.60;92.20;;;;;;7372286;19;20038;-84
2023/06/16 08:16:10;;;;;;;8.20;7.22;;;25.60;91.60;;;;;;7373186;19;20053;-85
2023/06/16 08:18:38;;;;;;;6.50;5.85;;;25.70;90.80;;;;;;7372839;19;20542;-85
2023/06/16 08:21:06;;;;;;;11.07;6.63;;;26.20;92.30;;;;;;7373897;19;20023;-86
2023/06/16 08:23:35;;;;;;;11.32;6.82;;;26.40;90.90;;;;;;7373710;19;20051;-86
2023/06/16 08:26:01;;;;;;;7.60;6.13;;;26.20;89.60;;;;;;7374420;19;20018;-84
2023/06/16 08:28:29;;;;;;;7.20;6.50;;;26.50;89.00;;;;;;7376564;19;20438;-87
2023/06/16 08:30:55;;;;;;;8.57;6.93;;;26.60;88.50;;;;;;7371351;19;20025;-85
2023/06/16 08:33:21;;;;;;;6.78;6.13;;;26.50;86.70;;;;;;7373101;19;20026;-85
2023/06/16 08:35:48;;;;;;;9.77;5.80;;;26.90;86.40;;;;;;7370553;19;20078;-86
2023/06/16 08:38:15;;;;;;;8.20;6.90;;;27.30;83.10;;;;;;7377648;19;20365;-87
2023/06/16 08:40:41;;;;;;;9.38;7.10;;;27.50;77.70;;;;;;7374094;19;20102;-87
2023/06/16 08:43:14;;;;;;;11.45;7.28;;;26.70;79.20;;;;;;7373165;19;20026;-85
2023/06/16 08:45:41;;;;;;;8.50;6.68;;;27.30;78.70;;;;;;7375673;19;20022;-87
2023/06/16 08:48:11;;;;;;;9.00;6.60;;;27.50;76.00;;;;;;7373098;19;20018;-87
2023/06/16 08:50:39;;;;;;;11.52;6.65;;;27.80;74.50;;;;;;7372089;19;20018;-86
2023/06/16 08:53:09;;;;;;;9.57;5.90;;;27.60;73.50;;;;;;7370716;19;20062;-83
2023/06/16 08:55:44;;;;;;;7.63;6.70;;;27.70;71.30;;;;;;7362628;19;20014;-84
2023/06/16 08:58:13;;;;;;;7.80;7.10;;;27.20;70.70;;;;;;7367817;19;20021;-81
2023/06/16 09:00:41;;;;;;;14.60;12.02;;;27.80;70.40;;;;;;7364982;19;20022;-81
2023/06/16 09:03:13;;;;;;;13.43;12.13;;;27.70;68.60;;;;;;7370335;19;20019;-84
2023/06/16 09:05:39;;;;;;;8.48;7.65;;;27.80;69.20;;;;;;7370088;19;20456;-83
2023/06/16 09:08:05;;;;;;;8.48;6.38;;;28.00;68.70;;;;;;7369513;19;20618;-83
2023/06/16 09:10:34;;;;;;;7.90;5.68;;;27.80;66.30;;;;;;7368673;19;20018;-84
2023/06/16 09:13:01;;;;;;;8.20;6.75;;;28.10;67.30;;;;;;7372845;19;20022;-84
2023/06/16 09:15:27;;;;;;;22.08;19.95;;;28.40;65.40;;;;;;7370260;19;20487;-84
2023/06/16 09:17:56;;;;;;;23.25;9.15;;;28.40;65.50;;;;;;7373743;19;20019;-84
2023/06/16 09:20:23;;;;;;;7.55;6.80;;;27.90;64.60;;;;;;7368768;19;20538;-83
2023/06/16 09:22:55;;;;;;;8.00;5.88;;;28.40;64.80;;;;;;7365529;19;20105;-83
2023/06/16 09:25:23;;;;;;;13.18;11.77;;;28.80;63.50;;;;;;7363698;19;20031;-83
2023/06/16 09:27:55;;;;;;;25.33;23.08;;;29.10;63.70;;;;;;7371307;19;20030;-83
2023/06/16 09:30:30;;;;;;;9.05;5.40;;;29.30;62.30;;;;;;7369527;19;20026;-82
2023/06/16 09:32:57;;;;;;;11.73;10.68;;;29.60;58.30;;;;;;7367761;19;20123;-83
2023/06/16 09:35:29;;;;;;;7.28;6.57;;;29.50;59.20;;;;;;7368410;19;20017;-84
2023/06/16 09:37:58;;;;;;;9.27;8.30;;;29.90;58.80;;;;;;7369993;19;20789;-85
2023/06/16 09:40:27;;;;;;;7.65;6.28;;;29.80;57.70;;;;;;7371883;19;20497;-84
2023/06/16 09:42:57;;;;;;;5.75;4.97;;;30.00;57.00;;;;;;7372612;19;20044;-80
2023/06/16 09:45:30;;;;;;;6.95;6.28;;;30.00;57.00;;;;;;7372268;19;20031;-82
2023/06/16 09:48:01;;;;;;;27.92;25.60;;;29.90;54.90;;;;;;7371981;19;20026;-82
2023/06/16 09:50:31;;;;;;;7.65;5.20;;;30.00;55.10;;;;;;7370531;19;20499;-82
2023/06/16 09:52:58;;;;;;;9.88;8.85;;;30.40;54.90;;;;;;7370848;19;20907;-81
2023/06/16 09:55:27;;;;;;;14.82;12.88;;;30.10;55.10;;;;;;7371258;19;20015;-81
2023/06/16 09:57:54;;;;;;;9.13;7.30;;;30.40;55.00;;;;;;7367694;19;20023;-83
2023/06/16 10:00:22;;;;;;;6.47;4.70;;;30.70;54.90;;;;;;7366350;19;20058;-83
2023/06/16 10:02:50;;;;;;;9.73;6.30;;;30.60;54.00;;;;;;7363896;19;20019;-82
2023/06/16 10:05:18;;;;;;;14.77;13.35;;;30.60;54.00;;;;;;7372663;19;20094;-83
2023/06/16 10:07:51;;;;;;;8.23;5.20;;;30.70;54.10;;;;;;7370216;19;20037;-82
2023/06/16 10:10:22;;;;;;;13.43;12.23;;;31.00;53.60;;;;;;7372112;19;20015;-81
2023/06/16 10:12:50;;;;;;;9.80;7.75;;;31.20;52.90;;;;;;7367646;19;20782;-83
2023/06/16 10:15:37;;;;;;;6.97;5.60;;;31.20;51.70;;;;;;7372382;19;20771;-83
2023/06/16 10:18:06;;;;;;;5.97;4.00;;;30.40;49.50;;;;;;7367780;19;20355;-81
2023/06/16 10:20:34;;;;;;;7.25;4.30;;;30.80;50.10;;;;;;7366865;19;20022;-81
2023/06/16 10:23:01;;;;;;;6.20;4.05;;;31.00;49.10;;;;;;7369489;19;20059;-81
2023/06/16 10:25:31;;;;;;;4.80;4.07;;;31.10;48.00;;;;;;7376982;19;20020;-82
2023/06/16 10:28:00;;;;;;;5.63;4.88;;;31.00;47.50;;;;;;7375097;19;20018;-83
2023/06/16 10:30:28;;;;;;;10.82;9.65;;;31.20;47.70;;;;;;7378107;19;20041;-83
2023/06/16 10:32:58;;;;;;;11.88;10.68;;;31.50;47.00;;;;;;7375537;19;20811;-84
2023/06/16 10:35:24;;;;;;;11.10;8.80;;;31.40;46.50;;;;;;7377934;19;20011;-84
2023/06/16 10:37:55;;;;;;;10.85;9.85;;;31.30;46.20;;;;;;7373314;19;20097;-82
2023/06/16 10:40:23;;;;;;;19.30;17.50;;;31.10;45.30;;;;;;7372124;19;20026;-84
2023/06/16 10:42:55;;;;;;;20.90;18.85;;;31.00;45.40;;;;;;7377456;19;20026;-82
2023/06/16 10:45:31;;;;;;;7.00;4.30;;;30.90;44.70;;;;;;7378209;19;20636;-83
2023/06/16 10:47:58;;;;;;;4.97;3.70;;;30.90;45.10;;;;;;7367779;19;20030;-82
2023/06/16 10:50:41;;;;;;;11.65;9.70;;;31.10;44.20;;;;;;7376449;19;20017;-84
2023/06/16 10:53:11;;;;;;;5.45;3.58;;;30.90;43.40;;;;;;7375875;19;20349;-84
2023/06/16 10:55:42;;;;;;;6.63;3.17;;;31.40;43.40;;;;;;7374065;19;20014;-83
2023/06/16 10:58:17;;;;;;;5.68;4.57;;;30.80;42.40;;;;;;7378149;19;20772;-83
2023/06/16 11:01:05;;;;;;;8.65;6.65;;;31.40;42.30;;;;;;7377291;19;20023;-83
2023/06/16 11:03:35;;;;;;;4.30;3.35;;;31.30;41.50;;;;;;7374810;19;20023;-85
2023/06/16 11:06:03;;;;;;;5.93;3.38;;;31.80;40.90;;;;;;7373666;19;20019;-83
2023/06/16 11:08:29;;;;;;;7.95;3.40;;;31.20;39.60;;;;;;7372223;19;20022;-82
2023/06/16 11:11:05;;;;;;;4.82;3.63;;;30.80;39.80;;;;;;7370719;19;20912;-85
2023/06/16 11:13:38;;;;;;;6.30;3.20;;;30.70;40.00;;;;;;7373732;19;20120;-85
2023/06/16 11:16:04;;;;;;;5.60;3.47;;;30.90;40.90;;;;;;7377463;19;20019;-84
2023/06/16 11:18:35;;;;;;;3.50;2.80;;;31.20;40.70;;;;;;7376960;19;20774;-85
2023/06/16 11:21:03;;;;;;;3.50;2.55;;;31.10;40.80;;;;;;7372864;19;20695;-84
2023/06/16 11:23:31;;;;;;;6.00;3.85;;;31.60;40.50;;;;;;7378102;19;20186;-84
2023/06/16 11:26:18;;;;;;;4.70;2.95;;;31.60;40.30;;;;;;7372401;19;20026;-85
2023/06/16 11:28:46;;;;;;;4.82;3.00;;;31.70;39.50;;;;;;7366879;19;20101;-84
2023/06/16 11:31:14;;;;;;;3.00;2.58;;;31.90;40.30;;;;;;7371287;19;20014;-83
2023/06/16 11:33:41;;;;;;;6.32;3.13;;;31.90;39.40;;;;;;7371171;19;20011;-84
2023/06/16 11:36:18;;;;;;;6.00;2.95;;;31.40;39.70;;;;;;7372657;19;20022;-83
2023/06/16 11:38:46;;;;;;;7.28;3.40;;;31.00;39.30;;;;;;7374544;19;20094;-85
2023/06/16 11:41:20;;;;;;;11.40;4.20;;;31.00;38.80;;;;;;7370564;19;20041;-85
2023/06/16 11:43:47;;;;;;;5.55;3.08;;;31.50;40.10;;;;;;7371827;19;20073;-83
2023/06/16 11:46:16;;;;;;;6.28;2.90;;;31.40;39.10;;;;;;7366944;19;20109;-84
2023/06/16 11:48:43;;;;;;;4.32;2.88;;;31.60;38.50;;;;;;7372859;19;20024;-84
2023/06/16 11:51:11;;;;;;;6.72;3.55;;;31.40;38.40;;;;;;7372127;19;20018;-85
2023/06/16 11:53:39;;;;;;;6.68;3.22;;;31.60;38.40;;;;;;7369343;19;20041;-88
2023/06/16 11:56:12;;;;;;;7.03;5.15;;;31.10;38.30;;;;;;7369507;19;20023;-87
2023/06/16 11:58:39;;;;;;;4.95;3.60;;;31.30;39.00;;;;;;7370093;19;20023;-89
2023/06/16 12:01:06;;;;;;;4.75;3.30;;;31.90;38.80;;;;;;7369950;19;20060;-88
2023/06/16 12:03:40;;;;;;;8.40;4.47;;;32.40;38.80;;;;;;7373821;19;20038;-85
2023/06/16 12:06:08;;;;;;;5.63;2.80;;;32.80;38.10;;;;;;7374696;19;20019;-88
2023/06/16 12:08:43;;;;;;;6.28;4.85;;;32.60;36.60;;;;;;7375897;19;20030;-85
2023/06/16 12:11:21;;;;;;;6.53;3.10;;;32.60;37.20;;;;;;7374015;19;20014;-85
2023/06/16 12:13:50;;;;;;;4.78;4.10;;;32.60;37.50;;;;;;7373086;19;20534;-86
2023/06/16 12:16:17;;;;;;;3.65;2.72;;;32.40;36.60;;;;;;7373243;19;20085;-86
2023/06/16 12:18:43;;;;;;;8.25;4.07;;;32.10;37.60;;;;;;7372207;19;20064;-86
2023/06/16 12:21:23;;;;;;;8.50;7.65;;;32.10;36.40;;;;;;7371352;19;20479;-85
2023/06/16 12:23:55;;;;;;;4.57;2.75;;;32.40;37.80;;;;;;7375856;19;20019;-83
2023/06/16 12:26:30;;;;;;;5.00;3.65;;;32.30;37.00;;;;;;7369576;19;20525;-83
2023/06/16 12:28:57;;;;;;;6.80;4.63;;;32.60;36.10;;;;;;7364090;19;20114;-84
2023/06/16 12:31:28;;;;;;;3.42;2.45;;;32.40;36.10;;;;;;7358251;19;20037;-84
2023/06/16 12:33:57;;;;;;;4.10;2.63;;;31.80;34.80;;;;;;7359690;19;20023;-84
2023/06/16 12:36:23;;;;;;;3.58;2.78;;;31.60;34.80;;;;;;7364697;19;20485;-85
2023/06/16 12:38:55;;;;;;;4.75;3.28;;;31.60;35.70;;;;;;7367177;19;20018;-83
2023/06/16 12:41:22;;;;;;;4.93;2.53;;;31.50;36.20;;;;;;7371461;19;20106;-84
2023/06/16 12:43:50;;;;;;;4.90;3.28;;;31.30;35.80;;;;;;7369414;19;20018;-89
2023/06/16 12:46:18;;;;;;;9.55;2.83;;;31.90;35.80;;;;;;7369354;19;20505;-86
2023/06/16 12:48:45;;;;;;;4.63;3.78;;;31.60;36.20;;;;;;7369262;19;20019;-85